Time;durP1;ratioP1;P1;durP2;ratioP2;P2;SDS_P1;SDS_P2;PMS_P1;PMS_P2;Temp;Humidity;BMP_temperature;BMP_pressure;BME280_temperature;BME280_humidity;BME280_pressure;Samples;Min_cycle;Max_cycle;Signal;HPM_P1;HPM_P2
2021/12/20 00:01:06;;;;;;;13.73;3.03;;;25.50;99.90;;;;;;5053458;28;20750;-68
2021/12/20 00:03:34;;;;;;;16.85;3.00;;;25.40;99.90;;;;;;5053747;28;20033;-68
2021/12/20 00:06:02;;;;;;;17.92;3.15;;;25.30;99.90;;;;;;5050864;28;20045;-68
2021/12/20 00:08:29;;;;;;;16.98;3.35;;;25.20;99.90;;;;;;5049356;28;20024;-68
2021/12/20 00:10:57;;;;;;;21.30;2.53;;;25.60;99.90;;;;;;5051914;28;20524;-67
2021/12/20 00:13:24;;;;;;;19.38;3.42;;;25.90;99.90;;;;;;5055140;28;20017;-67
2021/12/20 00:15:51;;;;;;;16.98;3.58;;;26.10;99.90;;;;;;5053140;28;20025;-67
2021/12/20 00:18:19;;;;;;;20.33;3.40;;;26.40;99.90;;;;;;5046501;28;20465;-68
2021/12/20 00:20:46;;;;;;;17.17;3.40;;;26.60;99.90;;;;;;5053900;28;20457;-68
2021/12/20 00:23:13;;;;;;;16.02;3.25;;;26.60;99.90;;;;;;5049644;28;20083;-68
2021/12/20 00:25:42;;;;;;;18.38;3.47;;;26.60;99.90;;;;;;5054272;28;20017;-70
2021/12/20 00:28:09;;;;;;;14.82;2.45;;;27.00;99.90;;;;;;5056556;28;20120;-67
2021/12/20 00:30:36;;;;;;;17.83;2.75;;;27.10;99.90;;;;;;5063752;28;20476;-67
2021/12/20 00:33:05;;;;;;;16.77;3.30;;;27.30;99.90;;;;;;5059373;28;20036;-67
2021/12/20 00:35:32;;;;;;;14.77;2.70;;;27.20;99.90;;;;;;5062733;28;20018;-67
2021/12/20 00:40:45;;;;;;;17.23;3.17;;;27.20;99.90;;;;;;5038213;28;20533;-67
2021/12/20 00:43:12;;;;;;;17.73;2.67;;;27.00;99.90;;;;;;5057104;28;20057;-68
2021/12/20 00:45:39;;;;;;;12.48;2.75;;;27.00;99.90;;;;;;5055716;28;20025;-68
2021/12/20 00:48:07;;;;;;;16.65;2.50;;;27.30;99.90;;;;;;5048667;28;20060;-68
2021/12/20 00:50:35;;;;;;;17.05;2.83;;;27.50;99.90;;;;;;5060771;28;20032;-68
2021/12/20 00:53:03;;;;;;;17.42;2.72;;;27.50;99.90;;;;;;5051813;28;20390;-68
2021/12/20 00:55:31;;;;;;;15.90;2.45;;;27.80;99.90;;;;;;5056666;28;20071;-67
2021/12/20 00:57:59;;;;;;;15.52;2.55;;;28.00;99.90;;;;;;5039289;28;20022;-68
2021/12/20 01:00:34;;;;;;;10.65;2.58;;;28.20;99.90;;;;;;5052632;28;20044;-68
2021/12/20 01:03:03;;;;;;;12.23;2.38;;;28.00;99.90;;;;;;5066434;28;20029;-68
2021/12/20 01:05:31;;;;;;;11.88;1.77;;;28.20;99.90;;;;;;5064595;28;20395;-69
2021/12/20 01:08:01;;;;;;;9.40;1.98;;;28.10;99.90;;;;;;5054749;28;20389;-70
2021/12/20 01:10:30;;;;;;;10.05;1.35;;;28.00;99.90;;;;;;5051230;28;20025;-71
2021/12/20 01:13:00;;;;;;;9.65;1.58;;;27.60;99.90;;;;;;5052195;28;20033;-71
2021/12/20 01:15:33;;;;;;;13.77;2.67;;;28.00;99.90;;;;;;5065133;28;20377;-71
2021/12/20 01:18:01;;;;;;;11.95;1.83;;;28.10;99.90;;;;;;5053633;28;20025;-71
2021/12/20 01:20:29;;;;;;;9.63;2.03;;;28.20;99.90;;;;;;5056114;28;20025;-71
2021/12/20 01:22:57;;;;;;;10.32;1.98;;;28.10;99.90;;;;;;5051348;28;20029;-70
2021/12/20 01:25:25;;;;;;;12.50;2.15;;;28.30;99.90;;;;;;5054066;28;20033;-71
2021/12/20 01:27:53;;;;;;;14.93;2.88;;;28.30;99.90;;;;;;5036536;28;20036;-70
2021/12/20 01:30:24;;;;;;;9.15;2.42;;;28.60;99.90;;;;;;5033421;28;20044;-71
2021/12/20 01:32:51;;;;;;;7.82;1.30;;;28.50;99.90;;;;;;5057826;28;20033;-71
2021/12/20 01:35:20;;;;;;;10.20;1.88;;;28.40;99.90;;;;;;5056051;28;20021;-70
2021/12/20 01:37:48;;;;;;;12.90;2.28;;;28.30;99.90;;;;;;5056162;28;20021;-70
2021/12/20 01:40:17;;;;;;;13.23;1.83;;;28.20;99.90;;;;;;5050822;28;20029;-70
2021/12/20 01:42:45;;;;;;;13.15;1.65;;;28.00;99.90;;;;;;5051576;28;20076;-70
2021/12/20 01:45:23;;;;;;;10.65;1.42;;;28.10;99.90;;;;;;5060051;28;20080;-71
2021/12/20 01:48:00;;;;;;;11.15;2.15;;;28.20;99.90;;;;;;5060214;28;20052;-70
2021/12/20 01:53:17;;;;;;;12.20;2.55;;;28.30;99.90;;;;;;5055912;28;20049;-70
2021/12/20 01:55:49;;;;;;;12.93;2.15;;;28.20;99.90;;;;;;5059359;28;20037;-70
2021/12/20 01:58:17;;;;;;;11.43;2.17;;;28.00;99.90;;;;;;5056709;28;20032;-70
2021/12/20 02:03:30;;;;;;;13.57;2.28;;;28.40;99.90;;;;;;5036433;28;20036;-70
2021/12/20 02:05:59;;;;;;;12.30;2.17;;;28.00;99.90;;;;;;5041535;28;20033;-70
2021/12/20 02:08:29;;;;;;;10.73;1.90;;;28.10;99.90;;;;;;5036461;28;20026;-71
2021/12/20 02:11:09;;;;;;;11.70;2.05;;;28.50;99.90;;;;;;5042138;28;20052;-70
2021/12/20 02:13:39;;;;;;;14.82;2.03;;;28.60;99.90;;;;;;5058582;28;20021;-70
2021/12/20 02:16:07;;;;;;;8.63;2.30;;;28.70;99.90;;;;;;5051051;28;20440;-71
2021/12/20 02:18:35;;;;;;;11.13;2.10;;;28.80;99.90;;;;;;5045277;28;20401;-71
2021/12/20 02:21:03;;;;;;;11.27;2.08;;;28.80;99.90;;;;;;5055815;28;20025;-69
2021/12/20 02:23:30;;;;;;;10.65;2.13;;;28.70;99.90;;;;;;5057484;28;20025;-69
2021/12/20 02:25:59;;;;;;;14.90;2.70;;;28.70;99.90;;;;;;5048840;28;20057;-69
2021/12/20 02:28:30;;;;;;;12.85;1.63;;;28.80;99.90;;;;;;5054305;28;20112;-69
2021/12/20 02:38:52;;;;;;;9.52;2.15;;;28.80;99.90;;;;;;5056471;28;20029;-70
2021/12/20 02:41:19;;;;;;;12.65;2.13;;;28.20;99.90;;;;;;5051443;28;20029;-70
2021/12/20 02:44:03;;;;;;;13.73;2.58;;;28.40;99.90;;;;;;5052561;28;20021;-70
2021/12/20 02:49:10;;;;;;;9.20;2.13;;;28.20;99.90;;;;;;5057528;28;20029;-69
2021/12/20 02:51:38;;;;;;;13.93;2.65;;;28.30;99.90;;;;;;5053695;28;20115;-70
2021/12/20 02:54:08;;;;;;;15.55;2.30;;;28.30;99.90;;;;;;5054696;28;20150;-69
2021/12/20 02:56:36;;;;;;;11.15;1.88;;;28.80;99.90;;;;;;5051506;28;20025;-69
2021/12/20 02:59:05;;;;;;;10.77;1.80;;;28.70;99.90;;;;;;5055562;28;20033;-69
2021/12/20 03:01:34;;;;;;;12.25;2.35;;;28.70;99.90;;;;;;5050555;28;20014;-69
2021/12/20 03:04:02;;;;;;;10.90;1.70;;;28.70;99.90;;;;;;5056650;28;20424;-69
2021/12/20 03:06:52;;;;;;;11.02;2.20;;;28.70;99.90;;;;;;5057419;28;20082;-69
2021/12/20 03:09:22;;;;;;;13.30;2.25;;;28.40;99.90;;;;;;5058832;28;20179;-69
2021/12/20 03:11:59;;;;;;;11.82;1.63;;;28.20;99.90;;;;;;5067517;28;20040;-69
2021/12/20 03:14:32;;;;;;;11.82;1.92;;;28.10;99.90;;;;;;5060975;28;20021;-69
2021/12/20 03:17:00;;;;;;;12.18;2.20;;;28.40;99.90;;;;;;5056839;28;20478;-69
2021/12/20 03:19:29;;;;;;;12.35;2.28;;;28.30;99.90;;;;;;5052046;28;20505;-70
2021/12/20 03:21:57;;;;;;;11.93;2.35;;;28.50;99.90;;;;;;5063937;28;20060;-69
2021/12/20 03:24:25;;;;;;;16.17;2.67;;;28.40;99.90;;;;;;5078580;28;20063;-68
2021/12/20 03:26:53;;;;;;;13.50;2.25;;;28.10;99.90;;;;;;5069741;28;20045;-68
2021/12/20 03:29:20;;;;;;;14.30;2.65;;;28.40;99.90;;;;;;5065050;28;20120;-69
2021/12/20 03:31:48;;;;;;;13.63;2.58;;;28.50;99.90;;;;;;5054229;28;20038;-69
2021/12/20 03:34:16;;;;;;;11.98;2.17;;;28.80;99.90;;;;;;5044967;28;20025;-69
2021/12/20 03:36:43;;;;;;;15.52;2.50;;;28.40;99.90;;;;;;5050758;28;20025;-67
2021/12/20 03:39:10;;;;;;;10.15;1.95;;;28.00;99.90;;;;;;5058612;28;20540;-69
2021/12/20 03:41:38;;;;;;;9.63;1.83;;;28.00;99.90;;;;;;5060533;28;20031;-67
2021/12/20 03:44:07;;;;;;;11.38;1.95;;;27.80;99.90;;;;;;5053172;28;20056;-68
2021/12/20 03:46:35;;;;;;;16.30;3.05;;;27.60;99.90;;;;;;5041248;28;20575;-68
2021/12/20 03:49:02;;;;;;;10.65;1.90;;;27.30;99.90;;;;;;5046669;28;20021;-68
2021/12/20 03:51:30;;;;;;;12.18;2.38;;;27.60;99.90;;;;;;5056469;28;20124;-67
2021/12/20 03:53:57;;;;;;;9.82;1.95;;;27.70;99.90;;;;;;5066146;28;20055;-67
2021/12/20 03:56:25;;;;;;;15.52;2.33;;;27.60;99.90;;;;;;5057749;28;20057;-68
2021/12/20 03:58:52;;;;;;;11.75;2.28;;;27.30;99.90;;;;;;5038481;28;20022;-68
2021/12/20 04:01:20;;;;;;;14.05;2.30;;;27.40;99.90;;;;;;5055614;28;20079;-68
2021/12/20 04:03:49;;;;;;;14.48;3.10;;;27.40;99.90;;;;;;5058638;28;20029;-68
2021/12/20 04:06:17;;;;;;;15.43;2.75;;;27.20;99.90;;;;;;5059938;28;20021;-68
2021/12/20 04:08:46;;;;;;;15.23;2.42;;;27.30;99.90;;;;;;5059654;28;20116;-68
2021/12/20 04:11:13;;;;;;;18.23;3.25;;;27.30;99.90;;;;;;5054417;28;20128;-68
2021/12/20 04:13:40;;;;;;;15.88;3.08;;;27.30;99.90;;;;;;5036980;28;20021;-68
2021/12/20 04:16:08;;;;;;;16.23;2.58;;;27.40;99.90;;;;;;5041248;28;20026;-68
2021/12/20 04:18:35;;;;;;;10.80;1.90;;;27.40;99.90;;;;;;5059388;28;20493;-68
2021/12/20 04:21:03;;;;;;;15.20;2.00;;;27.30;99.90;;;;;;5051802;28;20035;-68
2021/12/20 04:23:31;;;;;;;11.52;2.17;;;27.10;99.90;;;;;;5058508;28;20076;-68
2021/12/20 04:25:58;;;;;;;15.27;2.45;;;27.00;99.90;;;;;;5058912;28;20397;-68
2021/12/20 04:28:25;;;;;;;13.57;2.40;;;26.90;99.90;;;;;;5069074;28;20383;-67
2021/12/20 04:30:53;;;;;;;16.23;2.95;;;27.10;99.90;;;;;;5086027;28;20055;-68
2021/12/20 04:33:20;;;;;;;11.45;2.20;;;27.00;99.90;;;;;;5042300;28;20053;-68
2021/12/20 04:35:48;;;;;;;15.52;2.67;;;27.00;99.90;;;;;;5038142;28;20025;-67
2021/12/20 04:38:17;;;;;;;13.73;2.58;;;26.70;99.90;;;;;;5041162;28;20029;-67
2021/12/20 04:40:44;;;;;;;18.42;3.97;;;26.60;99.90;;;;;;5040111;28;20021;-67
2021/12/20 04:43:11;;;;;;;18.92;3.13;;;26.60;99.90;;;;;;5062530;28;20486;-68
2021/12/20 04:45:39;;;;;;;17.45;2.67;;;26.70;99.90;;;;;;5059805;28;20430;-68
2021/12/20 04:48:06;;;;;;;21.67;3.47;;;26.70;99.90;;;;;;5077219;28;20040;-67
2021/12/20 04:50:34;;;;;;;17.88;2.97;;;26.80;99.90;;;;;;5075880;28;20043;-68
2021/12/20 04:53:02;;;;;;;15.00;2.72;;;26.90;99.90;;;;;;5053766;28;20493;-68
2021/12/20 04:55:30;;;;;;;18.50;3.50;;;26.80;99.90;;;;;;5054115;28;20041;-68
2021/12/20 04:57:59;;;;;;;13.55;2.97;;;26.90;99.90;;;;;;5059786;28;20033;-68
2021/12/20 05:00:30;;;;;;;13.30;2.60;;;27.00;99.90;;;;;;5065460;28;20021;-68
2021/12/20 05:02:58;;;;;;;17.38;3.05;;;26.80;99.90;;;;;;5052231;28;20025;-67
2021/12/20 05:05:28;;;;;;;21.00;3.25;;;26.70;99.90;;;;;;5049111;28;20033;-68
2021/12/20 05:07:56;;;;;;;15.13;3.25;;;26.70;99.90;;;;;;5054431;28;20037;-69
2021/12/20 05:10:32;;;;;;;16.48;3.28;;;26.70;99.90;;;;;;5054542;28;20028;-68
2021/12/20 05:13:08;;;;;;;18.55;3.47;;;26.70;99.90;;;;;;5051759;28;20048;-69
2021/12/20 05:15:36;;;;;;;18.33;3.58;;;26.60;99.90;;;;;;5054380;28;20033;-68
2021/12/20 05:18:06;;;;;;;15.35;2.40;;;26.60;99.90;;;;;;5051780;28;20393;-68
2021/12/20 05:20:33;;;;;;;15.65;2.40;;;26.50;99.90;;;;;;5053930;28;20477;-69
2021/12/20 05:23:02;;;;;;;16.40;3.38;;;26.60;99.90;;;;;;5051943;28;20150;-69
2021/12/20 05:25:29;;;;;;;18.90;3.80;;;26.80;99.90;;;;;;5054532;28;20037;-69
2021/12/20 05:27:57;;;;;;;18.02;3.00;;;26.60;99.90;;;;;;5055116;28;20028;-69
2021/12/20 05:30:24;;;;;;;12.70;2.63;;;26.50;99.90;;;;;;5054177;28;20031;-70
2021/12/20 05:32:51;;;;;;;16.63;2.97;;;26.40;99.90;;;;;;5038809;28;20485;-69
2021/12/20 05:35:21;;;;;;;14.02;2.70;;;26.50;99.90;;;;;;5049088;28;20024;-68
2021/12/20 05:37:49;;;;;;;13.13;2.17;;;26.40;99.90;;;;;;5051747;28;20078;-68
2021/12/20 05:40:17;;;;;;;20.88;3.28;;;26.40;99.90;;;;;;5054588;28;20428;-69
2021/12/20 05:42:48;;;;;;;13.32;2.95;;;26.30;99.90;;;;;;5051115;28;20024;-68
2021/12/20 05:45:16;;;;;;;17.45;3.53;;;26.30;99.90;;;;;;5047955;28;20044;-69
2021/12/20 05:47:43;;;;;;;11.82;2.33;;;26.60;99.90;;;;;;5036600;28;20045;-68
2021/12/20 05:50:12;;;;;;;15.93;2.92;;;26.70;99.90;;;;;;5037222;28;20469;-68
2021/12/20 05:52:39;;;;;;;19.13;3.15;;;26.70;99.90;;;;;;5042321;28;20068;-67
2021/12/20 05:55:08;;;;;;;19.30;3.53;;;26.70;99.90;;;;;;5052624;28;20029;-68
2021/12/20 05:57:36;;;;;;;14.55;2.53;;;26.60;99.90;;;;;;5051418;28;20722;-68
2021/12/20 06:00:09;;;;;;;16.58;2.85;;;26.80;99.90;;;;;;5053243;28;20111;-69
2021/12/20 06:02:36;;;;;;;15.23;2.90;;;27.00;99.90;;;;;;5052607;28;20020;-70
2021/12/20 06:05:04;;;;;;;15.25;3.28;;;27.10;99.90;;;;;;5050369;28;20037;-68
2021/12/20 06:07:31;;;;;;;15.95;2.80;;;26.90;99.90;;;;;;5041955;28;20083;-68
2021/12/20 06:09:58;;;;;;;15.45;3.10;;;26.90;99.90;;;;;;5033616;28;20116;-69
2021/12/20 06:12:26;;;;;;;9.50;1.73;;;26.70;99.90;;;;;;5045584;28;20116;-69
2021/12/20 06:14:53;;;;;;;13.13;2.75;;;26.90;99.90;;;;;;5053236;28;20025;-69
2021/12/20 06:17:20;;;;;;;18.65;2.70;;;26.90;99.90;;;;;;5050669;28;20033;-69
2021/12/20 06:19:47;;;;;;;12.35;1.80;;;27.00;99.90;;;;;;5053241;28;20539;-69
2021/12/20 06:22:15;;;;;;;11.32;1.92;;;27.00;99.90;;;;;;5047505;28;20033;-68
2021/12/20 06:24:42;;;;;;;11.50;1.98;;;27.10;99.90;;;;;;5040264;28;20079;-69
2021/12/20 06:27:09;;;;;;;10.07;2.30;;;27.00;99.90;;;;;;5047930;28;20108;-69
2021/12/20 06:29:37;;;;;;;14.60;2.65;;;27.20;99.90;;;;;;5048692;28;20520;-70
2021/12/20 06:32:04;;;;;;;11.65;2.03;;;27.40;99.90;;;;;;5039536;28;20041;-68
2021/12/20 06:34:31;;;;;;;11.48;2.17;;;27.30;99.90;;;;;;5033850;28;20481;-69
2021/12/20 06:36:59;;;;;;;9.57;2.38;;;27.50;99.90;;;;;;5042746;28;20551;-69
2021/12/20 06:39:26;;;;;;;10.52;2.30;;;27.90;99.90;;;;;;5052378;28;20078;-69
2021/12/20 06:41:53;;;;;;;17.73;2.45;;;27.90;99.90;;;;;;5045839;28;20029;-69
2021/12/20 06:44:21;;;;;;;14.77;2.28;;;28.00;99.90;;;;;;5041295;28;20452;-69
2021/12/20 06:46:48;;;;;;;7.30;1.30;;;28.30;99.90;;;;;;5055375;28;20413;-68
2021/12/20 06:49:15;;;;;;;10.57;2.13;;;28.50;99.90;;;;;;5081988;28;20373;-70
2021/12/20 06:51:44;;;;;;;19.88;2.50;;;27.60;99.90;;;;;;5057263;28;21936;-68
2021/12/20 06:54:16;;;;;;;9.80;2.15;;;27.20;99.90;;;;;;5037180;28;20055;-68
2021/12/20 06:56:44;;;;;;;14.32;2.10;;;27.00;99.90;;;;;;5042007;28;20107;-69
2021/12/20 06:59:12;;;;;;;13.50;2.13;;;26.90;99.90;;;;;;5053449;28;20030;-68
2021/12/20 07:01:41;;;;;;;15.18;3.08;;;26.80;99.90;;;;;;5059005;28;20033;-69
2021/12/20 07:04:09;;;;;;;12.82;2.58;;;26.60;99.90;;;;;;5058915;28;20060;-68
2021/12/20 07:06:36;;;;;;;13.13;2.83;;;26.70;99.90;;;;;;5057302;28;20035;-68
2021/12/20 07:09:04;;;;;;;18.67;3.03;;;27.20;99.90;;;;;;5058790;28;20107;-68
2021/12/20 07:11:31;;;;;;;16.55;3.10;;;26.80;99.90;;;;;;5058451;28;20029;-69
2021/12/20 07:13:59;;;;;;;23.70;4.40;;;26.90;99.90;;;;;;5057267;28;20534;-70
2021/12/20 07:16:26;;;;;;;12.80;3.20;;;27.00;99.90;;;;;;5045424;28;20040;-71
2021/12/20 07:18:53;;;;;;;24.02;6.00;;;27.00;99.90;;;;;;5049484;28;20409;-71
2021/12/20 07:21:21;;;;;;;11.95;2.83;;;27.50;99.90;;;;;;5056150;28;20090;-71
2021/12/20 07:23:48;;;;;;;17.42;3.25;;;28.50;99.90;;;;;;5057645;28;20036;-71
2021/12/20 07:26:15;;;;;;;19.88;3.42;;;28.30;99.90;;;;;;5052202;28;20358;-70
2021/12/20 07:28:44;;;;;;;17.25;2.35;;;27.80;99.90;;;;;;5056365;28;20020;-70
2021/12/20 07:31:13;;;;;;;16.90;3.35;;;27.50;99.90;;;;;;5042796;28;20056;-70
2021/12/20 07:33:42;;;;;;;21.40;2.97;;;27.30;99.90;;;;;;5058652;28;20013;-70
2021/12/20 07:36:11;;;;;;;22.25;3.10;;;27.00;99.90;;;;;;5045872;28;20020;-70
2021/12/20 07:38:38;;;;;;;15.52;2.75;;;26.90;99.90;;;;;;5038903;28;20112;-70
2021/12/20 07:41:05;;;;;;;18.35;3.28;;;26.80;99.90;;;;;;5057807;28;20017;-69
2021/12/20 07:43:33;;;;;;;14.52;2.33;;;26.80;99.90;;;;;;5058629;28;20032;-69
2021/12/20 07:46:01;;;;;;;19.75;2.80;;;27.30;99.90;;;;;;5055940;28;20029;-71
2021/12/20 07:48:28;;;;;;;18.58;3.38;;;27.30;99.90;;;;;;5055307;28;20534;-70
2021/12/20 07:50:55;;;;;;;16.33;2.97;;;27.50;99.90;;;;;;5055442;28;20021;-70
2021/12/20 07:53:22;;;;;;;16.70;3.03;;;28.20;99.90;;;;;;5057566;28;20507;-70
2021/12/20 07:55:50;;;;;;;22.48;3.20;;;27.20;99.90;;;;;;5056248;28;20037;-70
2021/12/20 07:58:17;;;;;;;13.63;2.72;;;26.60;99.90;;;;;;5048317;28;20028;-71
2021/12/20 08:00:44;;;;;;;16.00;3.28;;;26.30;99.90;;;;;;5038392;28;20036;-70
2021/12/20 08:03:12;;;;;;;18.88;3.22;;;26.30;99.90;;;;;;5058930;28;20448;-71
2021/12/20 08:05:39;;;;;;;16.67;2.88;;;26.10;99.90;;;;;;5054695;28;20028;-70
2021/12/20 08:08:07;;;;;;;19.88;3.22;;;25.90;99.90;;;;;;5046687;28;20369;-70
2021/12/20 08:10:35;;;;;;;16.25;3.08;;;25.80;99.90;;;;;;5054132;28;20071;-69
2021/12/20 08:13:03;;;;;;;23.83;4.53;;;25.70;99.90;;;;;;5051161;28;20039;-69
2021/12/20 08:15:31;;;;;;;16.45;3.95;;;25.70;99.90;;;;;;5055143;28;20075;-70
2021/12/20 08:17:59;;;;;;;15.63;3.60;;;25.60;99.90;;;;;;5053453;28;20547;-70
2021/12/20 08:20:26;;;;;;;22.52;4.43;;;25.60;99.90;;;;;;5054976;28;20100;-69
2021/12/20 08:22:54;;;;;;;21.83;4.00;;;25.60;99.90;;;;;;5055549;28;20454;-70
2021/12/20 08:25:21;;;;;;;20.13;4.15;;;25.60;99.90;;;;;;5050624;28;20466;-70
2021/12/20 08:27:50;;;;;;;16.77;3.05;;;25.40;99.90;;;;;;5053432;28;20047;-70
2021/12/20 08:30:18;;;;;;;24.92;4.35;;;25.40;99.90;;;;;;5055059;28;20044;-70
2021/12/20 08:32:45;;;;;;;17.70;4.25;;;25.40;99.90;;;;;;5053114;28;20101;-70
2021/12/20 08:35:14;;;;;;;16.85;3.83;;;25.40;99.90;;;;;;5040246;28;20099;-69
2021/12/20 08:37:42;;;;;;;16.75;2.72;;;25.30;99.90;;;;;;5049756;28;20029;-70
2021/12/20 08:40:12;;;;;;;20.60;3.25;;;25.40;99.90;;;;;;5052946;28;20037;-70
2021/12/20 08:42:41;;;;;;;20.33;4.55;;;25.30;99.90;;;;;;5038947;28;20069;-69
2021/12/20 08:45:09;;;;;;;18.58;3.83;;;25.30;99.90;;;;;;5040650;28;20126;-69
2021/12/20 08:47:37;;;;;;;22.48;4.50;;;25.30;99.90;;;;;;5054289;28;20052;-69
2021/12/20 08:50:09;;;;;;;16.85;3.95;;;25.30;99.90;;;;;;5054508;28;20025;-69
2021/12/20 08:52:36;;;;;;;19.45;3.85;;;25.30;99.90;;;;;;5054401;28;20029;-69
2021/12/20 08:55:05;;;;;;;22.63;3.47;;;25.20;99.90;;;;;;5052991;28;20033;-69
2021/12/20 08:57:32;;;;;;;17.52;3.65;;;25.10;99.90;;;;;;5053957;28;20533;-70
2021/12/20 09:00:00;;;;;;;25.65;3.90;;;25.10;99.90;;;;;;5052809;28;20033;-69
2021/12/20 09:02:27;;;;;;;17.95;3.78;;;25.10;99.90;;;;;;5044548;28;20495;-69
2021/12/20 09:04:54;;;;;;;19.63;4.13;;;25.10;99.90;;;;;;5054041;28;20021;-69
2021/12/20 09:07:22;;;;;;;20.05;3.70;;;25.10;99.90;;;;;;5054270;28;20127;-69
2021/12/20 09:09:49;;;;;;;20.85;3.88;;;25.10;99.90;;;;;;5054176;28;20035;-69
2021/12/20 09:12:20;;;;;;;24.60;4.28;;;25.10;99.90;;;;;;5052861;28;20037;-69
2021/12/20 09:14:48;;;;;;;17.27;3.97;;;25.00;99.90;;;;;;5054271;28;20445;-69
2021/12/20 09:17:17;;;;;;;13.38;3.42;;;25.00;99.90;;;;;;5052778;28;20029;-69
2021/12/20 09:19:44;;;;;;;15.98;3.40;;;25.00;99.90;;;;;;5047927;28;20021;-69
2021/12/20 09:22:12;;;;;;;24.50;4.45;;;25.00;99.90;;;;;;5036243;28;20465;-69
2021/12/20 09:24:40;;;;;;;15.77;3.50;;;25.00;99.90;;;;;;5033989;28;20030;-69
2021/12/20 09:27:08;;;;;;;12.93;2.75;;;25.00;99.90;;;;;;5033972;28;20049;-69
2021/12/20 09:29:36;;;;;;;21.80;3.88;;;25.00;99.90;;;;;;5033620;28;20108;-69
2021/12/20 09:32:05;;;;;;;22.55;4.68;;;25.00;99.90;;;;;;5033767;28;20029;-69
2021/12/20 09:34:32;;;;;;;19.23;4.78;;;24.90;99.90;;;;;;5057176;28;20040;-69
2021/12/20 09:37:04;;;;;;;17.67;3.67;;;24.90;99.90;;;;;;5061982;28;20477;-69
2021/12/20 09:39:33;;;;;;;14.45;3.72;;;24.90;99.90;;;;;;5051514;28;20124;-68
2021/12/20 09:42:00;;;;;;;14.55;2.80;;;24.90;99.90;;;;;;5053092;28;20021;-69
2021/12/20 09:44:28;;;;;;;20.02;4.38;;;24.80;99.90;;;;;;5053646;28;20132;-69
2021/12/20 09:46:57;;;;;;;14.23;3.05;;;24.80;99.90;;;;;;5053333;28;20071;-69
2021/12/20 09:49:25;;;;;;;12.32;2.95;;;24.80;99.90;;;;;;5053570;28;20021;-69
2021/12/20 09:51:54;;;;;;;20.42;2.85;;;24.80;99.90;;;;;;5051767;28;20041;-68
2021/12/20 09:54:22;;;;;;;18.55;3.08;;;24.80;99.90;;;;;;5052627;28;20074;-69
2021/12/20 09:56:53;;;;;;;13.43;3.15;;;24.80;99.90;;;;;;5034220;28;20037;-69
2021/12/20 09:59:24;;;;;;;19.00;3.53;;;24.80;99.90;;;;;;5033506;28;20021;-69
2021/12/20 10:01:53;;;;;;;19.83;4.45;;;24.80;99.90;;;;;;5033480;28;20033;-69
2021/12/20 10:04:22;;;;;;;13.25;2.42;;;24.70;99.90;;;;;;5031950;28;20444;-69
2021/12/20 10:06:52;;;;;;;13.38;3.17;;;24.70;99.90;;;;;;5033350;28;20022;-69
2021/12/20 10:09:26;;;;;;;16.35;3.35;;;24.70;99.90;;;;;;5033193;28;20022;-69
2021/12/20 10:12:13;;;;;;;14.18;3.42;;;24.70;99.90;;;;;;5045415;28;20045;-69
2021/12/20 10:15:02;;;;;;;17.02;2.75;;;24.70;99.90;;;;;;5035934;28;20037;-69
2021/12/20 10:17:49;;;;;;;12.45;2.58;;;24.70;99.90;;;;;;5032778;28;20412;-69
2021/12/20 10:20:23;;;;;;;14.23;2.38;;;24.70;99.90;;;;;;5032887;28;20042;-69
2021/12/20 10:23:07;;;;;;;10.57;2.55;;;24.70;99.90;;;;;;5032922;28;20033;-70
2021/12/20 10:25:36;;;;;;;14.38;2.47;;;24.70;99.90;;;;;;5048008;28;20055;-69
2021/12/20 10:28:08;;;;;;;15.82;2.50;;;24.60;99.90;;;;;;5050702;28;20071;-69
2021/12/20 10:30:44;;;;;;;15.43;3.08;;;24.60;99.90;;;;;;5052523;28;20025;-69
2021/12/20 10:33:18;;;;;;;16.23;2.75;;;24.60;99.90;;;;;;5052092;28;20112;-69
2021/12/20 10:35:53;;;;;;;15.90;2.72;;;24.50;99.90;;;;;;5052537;28;20116;-68
2021/12/20 10:38:21;;;;;;;15.23;3.05;;;24.60;99.90;;;;;;5051326;28;20064;-68
2021/12/20 10:40:55;;;;;;;15.90;3.42;;;24.50;99.90;;;;;;5052643;28;20067;-68
2021/12/20 10:43:23;;;;;;;;;;;24.50;99.90;;;;;;5052898;28;20532;-68
2021/12/20 10:45:55;;;;;;;11.88;2.80;;;24.50;99.90;;;;;;5052506;28;19995;-68
2021/12/20 10:48:30;;;;;;;18.63;2.97;;;24.50;99.90;;;;;;5051363;28;20044;-69
2021/12/20 10:50:57;;;;;;;11.93;2.67;;;24.40;99.90;;;;;;5048862;28;20052;-68
2021/12/20 10:53:26;;;;;;;16.63;3.08;;;24.40;99.90;;;;;;5032584;28;20025;-68
2021/12/20 10:56:06;;;;;;;13.88;2.22;;;24.40;99.90;;;;;;5032463;28;20105;-69
2021/12/20 10:58:38;;;;;;;9.25;2.15;;;24.40;99.90;;;;;;5032425;28;20056;-69
2021/12/20 11:01:20;;;;;;;7.35;2.00;;;24.40;99.90;;;;;;5051014;28;20033;-69
2021/12/20 11:04:21;;;;;;;8.27;2.30;;;24.40;99.90;;;;;;5052340;28;20492;-69
2021/12/20 11:09:28;;;;;;;16.92;3.00;;;24.30;99.90;;;;;;5036976;28;20033;-69
2021/12/20 11:12:01;;;;;;;17.10;2.88;;;24.30;99.90;;;;;;5047579;28;20116;-68
2021/12/20 11:14:41;;;;;;;10.10;2.22;;;24.30;99.90;;;;;;5032593;28;20030;-68
2021/12/20 11:17:11;;;;;;;13.95;3.38;;;24.20;99.90;;;;;;5031074;28;20061;-68
2021/12/20 11:19:43;;;;;;;11.65;2.65;;;24.20;99.90;;;;;;5050838;28;20033;-68
2021/12/20 11:22:19;;;;;;;11.45;3.10;;;24.20;99.90;;;;;;5052066;28;20021;-68
2021/12/20 11:25:00;;;;;;;8.82;2.58;;;24.10;99.90;;;;;;5052301;28;20021;-69
2021/12/20 11:27:43;;;;;;;12.20;2.95;;;24.10;99.90;;;;;;5050954;28;20108;-69
2021/12/20 11:30:13;;;;;;;12.07;2.58;;;24.00;99.90;;;;;;5050729;28;20093;-69
2021/12/20 11:32:42;;;;;;;9.98;2.05;;;24.00;99.90;;;;;;5051917;28;20036;-69
2021/12/20 11:35:10;;;;;;;11.88;3.30;;;24.00;99.90;;;;;;5037616;28;20029;-69
2021/12/20 11:37:38;;;;;;;7.35;2.30;;;24.00;99.90;;;;;;5051804;28;20028;-69
2021/12/20 11:40:09;;;;;;;11.65;2.58;;;24.00;99.90;;;;;;5051927;28;20032;-69
2021/12/20 11:42:36;;;;;;;12.48;2.83;;;23.90;99.90;;;;;;5054673;28;20029;-69
2021/12/20 11:45:07;;;;;;;9.60;2.50;;;23.90;99.90;;;;;;5055724;28;20065;-69
2021/12/20 11:47:59;;;;;;;11.63;2.40;;;23.90;99.90;;;;;;5044213;28;20120;-69
2021/12/20 11:50:38;;;;;;;11.57;2.00;;;23.80;99.90;;;;;;5030829;28;20049;-69
2021/12/20 11:53:07;;;;;;;12.02;2.20;;;23.80;99.90;;;;;;5043080;28;20380;-69
2021/12/20 11:55:36;;;;;;;8.73;3.08;;;23.80;99.90;;;;;;5035163;28;20048;-69
2021/12/20 11:58:18;;;;;;;10.68;2.53;;;23.80;99.90;;;;;;5033892;28;20128;-69
2021/12/20 12:00:50;;;;;;;8.02;2.20;;;23.80;99.90;;;;;;5034212;28;20075;-69
2021/12/20 12:03:21;;;;;;;13.80;3.00;;;23.80;99.90;;;;;;5038113;28;20021;-69
2021/12/20 12:06:03;;;;;;;9.40;2.35;;;23.80;99.90;;;;;;5035395;28;20040;-69
2021/12/20 12:08:37;;;;;;;11.82;2.63;;;23.80;99.90;;;;;;5035318;28;20052;-69
2021/12/20 12:11:10;;;;;;;10.07;2.40;;;23.70;99.90;;;;;;5053818;28;20103;-69
2021/12/20 12:13:48;;;;;;;15.43;3.43;;;23.70;99.90;;;;;;5055217;28;20078;-69
2021/12/20 12:16:28;;;;;;;11.93;3.38;;;23.70;99.90;;;;;;5055047;28;20243;-69
2021/12/20 12:19:01;;;;;;;13.95;3.30;;;23.70;99.90;;;;;;5055080;28;20032;-69
2021/12/20 12:21:36;;;;;;;12.30;3.03;;;23.60;99.90;;;;;;5055083;28;20067;-68
2021/12/20 12:24:14;;;;;;;12.15;2.95;;;23.70;99.90;;;;;;5053522;28;20035;-68
2021/12/20 12:26:47;;;;;;;10.93;2.45;;;23.60;99.90;;;;;;5054827;28;20132;-68
2021/12/20 12:29:20;;;;;;;12.02;3.22;;;23.70;99.90;;;;;;5054755;28;20036;-68
2021/12/20 12:31:57;;;;;;;12.10;2.85;;;23.60;99.90;;;;;;5054556;28;20116;-68
2021/12/20 12:34:37;;;;;;;12.23;2.75;;;23.60;99.90;;;;;;5054806;28;20021;-68
2021/12/20 12:37:33;;;;;;;10.95;2.50;;;23.60;99.90;;;;;;5054725;28;20100;-68
2021/12/20 12:40:26;;;;;;;9.98;2.58;;;23.60;99.90;;;;;;5054882;28;20025;-68
2021/12/20 12:42:57;;;;;;;17.25;3.50;;;23.60;99.90;;;;;;5038567;28;20033;-68
2021/12/20 12:45:56;;;;;;;9.27;2.65;;;23.50;99.90;;;;;;5053323;28;20055;-69
2021/12/20 12:48:55;;;;;;;7.10;2.22;;;23.50;99.90;;;;;;5054572;28;20048;-68
2021/12/20 12:51:22;;;;;;;10.82;2.85;;;23.50;99.90;;;;;;5020345;28;20485;-68
2021/12/20 12:53:57;;;;;;;7.38;2.58;;;23.50;99.90;;;;;;5054464;28;20511;-68
2021/12/20 12:56:31;;;;;;;14.05;3.67;;;23.40;99.90;;;;;;5053069;28;20037;-68
2021/12/20 12:59:14;;;;;;;11.00;3.00;;;23.40;99.90;;;;;;5048823;28;20021;-68
2021/12/20 13:01:58;;;;;;;11.35;2.95;;;23.40;99.90;;;;;;5054185;28;20082;-68
2021/12/20 13:04:44;;;;;;;8.27;2.60;;;23.40;99.90;;;;;;5054300;28;20055;-68
2021/12/20 13:07:16;;;;;;;8.75;2.28;;;23.40;99.90;;;;;;5053694;28;20029;-68
2021/12/20 13:09:45;;;;;;;10.55;2.78;;;23.30;99.90;;;;;;5049022;28;20029;-68
2021/12/20 13:15:11;;;;;;;10.85;3.08;;;23.30;99.90;;;;;;5054112;28;20064;-68
2021/12/20 13:17:42;;;;;;;11.90;3.00;;;23.30;99.90;;;;;;5052687;28;20025;-68